createdAt,value
2023-05-06T00:00:09.454Z,16.51
2023-05-06T00:02:41.892Z,16.50
2023-05-06T00:05:11.569Z,16.50
2023-05-06T00:07:40.341Z,16.47
2023-05-06T00:10:10.199Z,16.47
2023-05-06T00:12:39.157Z,16.40
2023-05-06T00:15:08.693Z,16.50
2023-05-06T00:17:38.125Z,16.47
2023-05-06T00:20:10.915Z,16.46
2023-05-06T00:22:40.066Z,16.43
2023-05-06T00:25:09.086Z,16.45
2023-05-06T00:27:39.148Z,16.42
2023-05-06T00:30:08.772Z,16.39
2023-05-06T00:32:37.918Z,16.34
2023-05-06T00:35:09.527Z,16.28
2023-05-06T00:37:39.202Z,16.26
2023-05-06T00:40:11.054Z,16.23
2023-05-06T00:42:39.373Z,16.22
2023-05-06T00:45:08.975Z,16.15
2023-05-06T00:47:38.340Z,16.15
2023-05-06T00:50:09.354Z,16.23
2023-05-06T00:52:38.755Z,16.25
2023-05-06T00:55:08.205Z,16.26
2023-05-06T00:57:36.821Z,16.23
2023-05-06T01:00:07.989Z,16.21
2023-05-06T01:02:46.547Z,16.19
2023-05-06T01:05:21.421Z,16.13
2023-05-06T01:08:05.585Z,16.12
2023-05-06T01:10:38.615Z,16.05
2023-05-06T01:13:13.208Z,16.01
2023-05-06T01:15:46.329Z,15.97
2023-05-06T01:18:18.530Z,15.91
2023-05-06T01:20:51.460Z,15.92
2023-05-06T01:23:21.798Z,15.92
2023-05-06T01:25:51.633Z,15.92
2023-05-06T01:28:20.075Z,15.89
2023-05-06T01:31:06.849Z,15.94
2023-05-06T01:33:43.382Z,15.84
2023-05-06T01:36:24.432Z,15.59
2023-05-06T01:39:01.284Z,15.62
2023-05-06T01:41:34.977Z,15.58
2023-05-06T01:44:06.815Z,15.59
2023-05-06T01:46:37.232Z,15.44
2023-05-06T01:49:11.637Z,15.43
2023-05-06T01:51:40.320Z,15.25
2023-05-06T01:54:11.127Z,15.14
2023-05-06T01:56:40.574Z,15.00
2023-05-06T01:59:09.023Z,15.11
2023-05-06T02:01:37.922Z,15.10
2023-05-06T02:04:09.045Z,14.96
2023-05-06T02:06:37.835Z,15.01
2023-05-06T02:09:08.489Z,15.01
2023-05-06T02:11:43.766Z,14.88
2023-05-06T02:14:13.923Z,14.96
2023-05-06T02:16:42.370Z,14.97
2023-05-06T02:19:11.966Z,15.12
2023-05-06T02:21:40.414Z,15.20
2023-05-06T02:24:09.965Z,15.26
2023-05-06T02:26:39.823Z,15.28
2023-05-06T02:29:09.527Z,15.16
2023-05-06T02:31:38.458Z,15.26
2023-05-06T02:34:06.973Z,15.20
2023-05-06T02:36:35.881Z,15.22
2023-05-06T02:39:04.950Z,15.16
2023-05-06T02:41:34.640Z,15.17
2023-05-06T02:44:03.797Z,15.22
2023-05-06T02:46:34.275Z,15.19
2023-05-06T02:49:02.988Z,15.11
2023-05-06T02:51:31.870Z,15.23
2023-05-06T02:54:00.705Z,15.07
2023-05-06T02:56:29.529Z,15.12
2023-05-06T02:58:58.037Z,15.21
2023-05-06T03:01:26.592Z,15.24
2023-05-06T03:03:56.884Z,15.22
2023-05-06T03:06:25.338Z,15.23
2023-05-06T03:08:54.027Z,15.25
2023-05-06T03:11:23.366Z,15.23
2023-05-06T03:13:51.830Z,15.24
2023-05-06T03:16:21.116Z,15.29
2023-05-06T03:18:53.388Z,15.24
2023-05-06T03:21:23.836Z,15.30
2023-05-06T03:23:53.862Z,15.28
2023-05-06T03:26:42.484Z,15.22
2023-05-06T03:29:13.554Z,15.13
2023-05-06T03:31:45.145Z,15.25
2023-05-06T03:34:14.548Z,15.24
2023-05-06T03:36:45.468Z,15.28
2023-05-06T03:39:14.036Z,15.15
2023-05-06T03:41:43.918Z,15.30
2023-05-06T03:44:12.829Z,15.28
2023-05-06T03:46:42.389Z,15.29
2023-05-06T03:49:11.825Z,15.23
2023-05-06T03:51:41.262Z,15.31
2023-05-06T03:54:13.609Z,15.29
2023-05-06T03:56:42.083Z,15.31
2023-05-06T03:59:11.693Z,15.34
2023-05-06T04:01:40.709Z,15.13
2023-05-06T04:04:11.350Z,15.22
2023-05-06T04:06:40.596Z,15.35
2023-05-06T04:09:10.061Z,15.37
2023-05-06T04:11:42.070Z,15.36
2023-05-06T04:14:13.991Z,15.32
2023-05-06T04:16:42.704Z,15.34
2023-05-06T04:19:11.957Z,15.35
2023-05-06T04:21:41.134Z,15.40
2023-05-06T04:24:13.746Z,15.41
2023-05-06T04:26:44.756Z,15.42
2023-05-06T04:29:13.616Z,15.48
2023-05-06T04:31:54.349Z,15.42
2023-05-06T04:34:24.990Z,15.53
2023-05-06T04:36:54.721Z,15.38
2023-05-06T04:39:39.388Z,15.44
2023-05-06T04:42:10.215Z,15.52
2023-05-06T04:44:46.902Z,15.55
2023-05-06T04:47:15.381Z,15.57
2023-05-06T04:49:48.998Z,15.59
2023-05-06T04:52:17.930Z,15.51
2023-05-06T04:54:46.845Z,15.65
2023-05-06T04:57:16.646Z,15.68
2023-05-06T04:59:47.193Z,15.66
2023-05-06T05:02:15.694Z,15.45
2023-05-06T05:04:45.651Z,15.61
2023-05-06T05:07:14.155Z,15.63
2023-05-06T05:09:44.837Z,15.65
2023-05-06T05:12:13.305Z,15.72
2023-05-06T05:14:48.955Z,15.69
2023-05-06T05:17:17.779Z,15.71
2023-05-06T05:19:48.614Z,15.75
2023-05-06T05:22:18.636Z,15.77
2023-05-06T05:24:47.074Z,15.68
2023-05-06T05:27:19.010Z,15.75
2023-05-06T05:29:48.981Z,15.73
2023-05-06T05:32:18.616Z,15.79
2023-05-06T05:34:47.450Z,15.78
2023-05-06T05:37:17.349Z,15.80
2023-05-06T05:39:45.831Z,15.79
2023-05-06T05:42:16.893Z,15.79
2023-05-06T05:44:47.568Z,15.85
2023-05-06T05:47:17.368Z,15.87
2023-05-06T05:49:47.220Z,15.90
2023-05-06T05:52:15.824Z,15.95
2023-05-06T05:54:44.676Z,15.65
2023-05-06T05:57:13.427Z,15.98
2023-05-06T05:59:43.291Z,15.99
2023-05-06T06:02:11.776Z,15.97
2023-05-06T06:04:42.455Z,15.70
2023-05-06T06:07:11.100Z,16.04
2023-05-06T06:09:43.200Z,16.12
2023-05-06T06:12:12.083Z,16.18
2023-05-06T06:14:42.014Z,16.26
2023-05-06T06:17:11.133Z,16.33
2023-05-06T06:19:41.073Z,16.37
2023-05-06T06:22:09.979Z,16.37
2023-05-06T06:24:38.471Z,16.26
2023-05-06T06:27:07.278Z,16.43
2023-05-06T06:29:35.695Z,16.44
2023-05-06T06:32:05.265Z,16.46
2023-05-06T06:34:33.850Z,16.48
2023-05-06T06:37:04.970Z,16.51
2023-05-06T06:39:34.142Z,16.58
2023-05-06T06:42:04.231Z,16.64
2023-05-06T06:44:39.584Z,16.72
2023-05-06T06:47:08.259Z,16.80
2023-05-06T06:49:37.084Z,16.89
2023-05-06T06:52:06.949Z,16.97
2023-05-06T06:54:35.939Z,16.99
2023-05-06T06:57:04.462Z,16.90
2023-05-06T06:59:32.830Z,17.00
2023-05-06T07:02:02.366Z,17.13
2023-05-06T07:04:30.875Z,17.27
2023-05-06T07:07:00.150Z,17.31
2023-05-06T07:09:29.929Z,17.46
2023-05-06T07:11:59.632Z,17.54
2023-05-06T07:14:28.075Z,17.57
2023-05-06T07:16:56.971Z,17.58
2023-05-06T07:19:25.809Z,17.53
2023-05-06T07:21:54.652Z,17.46
2023-05-06T07:24:23.247Z,17.58
2023-05-06T07:26:54.562Z,17.69
2023-05-06T07:29:22.998Z,17.80
2023-05-06T07:31:51.786Z,17.83
2023-05-06T07:34:21.235Z,17.80
2023-05-06T07:36:50.540Z,17.78
2023-05-06T07:39:19.428Z,17.76
2023-05-06T07:41:47.802Z,17.70
2023-05-06T07:44:18.548Z,17.68
2023-05-06T07:46:47.000Z,17.58
2023-05-06T07:49:15.921Z,17.71
2023-05-06T07:51:45.482Z,17.73
2023-05-06T07:54:14.298Z,17.75
2023-05-06T07:56:44.434Z,17.96
2023-05-06T07:59:12.891Z,18.08
2023-05-06T08:01:45.562Z,18.25
2023-05-06T08:04:14.242Z,18.23
2023-05-06T08:06:43.156Z,18.28
2023-05-06T08:09:17.002Z,18.40
2023-05-06T08:11:51.052Z,18.51
2023-05-06T08:14:19.970Z,18.59
2023-05-06T08:16:50.349Z,18.68
2023-05-06T08:19:19.794Z,18.65
2023-05-06T08:21:48.732Z,18.86
2023-05-06T08:24:17.594Z,18.86
2023-05-06T08:26:45.972Z,18.50
2023-05-06T08:29:14.805Z,18.83
2023-05-06T08:31:44.647Z,18.76
2023-05-06T08:34:14.574Z,18.86
2023-05-06T08:36:43.445Z,18.82
2023-05-06T08:39:13.678Z,18.85
2023-05-06T08:41:46.180Z,18.83
2023-05-06T08:44:17.520Z,18.84
2023-05-06T08:46:46.195Z,18.95
2023-05-06T08:49:17.067Z,19.04
2023-05-06T08:51:46.211Z,19.10
2023-05-06T08:54:15.349Z,19.08
2023-05-06T08:56:49.128Z,18.96
2023-05-06T08:59:20.957Z,18.91
2023-05-06T09:01:49.685Z,18.86
2023-05-06T09:04:20.725Z,18.97
2023-05-06T09:06:49.136Z,19.11
2023-05-06T09:09:17.499Z,19.27
2023-05-06T09:11:46.406Z,19.51
2023-05-06T09:14:16.612Z,19.66
2023-05-06T09:16:47.566Z,19.76
2023-05-06T09:19:17.168Z,19.92
2023-05-06T09:21:49.487Z,19.87
2023-05-06T09:24:18.571Z,19.96
2023-05-06T09:26:48.602Z,20.11
2023-05-06T09:29:17.017Z,20.04
2023-05-06T09:31:46.582Z,20.06
2023-05-06T09:34:17.477Z,20.40
2023-05-06T09:36:47.229Z,20.50
2023-05-06T09:39:15.981Z,20.76
2023-05-06T09:41:44.602Z,21.08
2023-05-06T09:44:13.200Z,21.28
2023-05-06T09:46:42.193Z,21.53
2023-05-06T09:49:11.586Z,21.52
2023-05-06T09:51:41.933Z,21.52
2023-05-06T09:54:13.115Z,21.33
2023-05-06T09:56:42.760Z,21.58
2023-05-06T09:59:12.137Z,22.19
2023-05-06T10:01:41.346Z,22.45
2023-05-06T10:04:12.781Z,22.91
2023-05-06T10:06:41.943Z,23.22
2023-05-06T10:09:12.092Z,23.68
2023-05-06T10:11:41.082Z,23.59
2023-05-06T10:14:11.190Z,23.13
2023-05-06T10:16:41.322Z,23.35
2023-05-06T10:19:10.789Z,23.65
2023-05-06T10:21:46.585Z,23.55
2023-05-06T10:24:19.514Z,23.36
2023-05-06T10:26:50.396Z,23.34
2023-05-06T10:29:20.745Z,23.68
2023-05-06T10:31:54.051Z,23.79
2023-05-06T10:34:24.259Z,23.98
2023-05-06T10:36:57.783Z,24.02
2023-05-06T10:39:29.206Z,24.30
2023-05-06T10:41:57.968Z,23.82
2023-05-06T10:45:01.091Z,23.50
2023-05-06T10:47:29.601Z,23.46
2023-05-06T10:50:22.222Z,23.96
2023-05-06T10:52:53.453Z,24.13
2023-05-06T10:55:31.031Z,24.32
2023-05-06T10:58:04.885Z,24.54
2023-05-06T11:00:34.113Z,24.54
2023-05-06T11:03:05.178Z,24.47
2023-05-06T11:05:36.934Z,24.66
2023-05-06T11:08:12.588Z,24.46
2023-05-06T11:10:42.932Z,24.37
2023-05-06T11:13:26.721Z,24.59
2023-05-06T11:15:56.509Z,24.50
2023-05-06T11:18:44.643Z,24.28
2023-05-06T11:21:38.910Z,24.28
2023-05-06T11:24:10.176Z,23.83
2023-05-06T11:26:41.529Z,23.72
2023-05-06T11:29:11.050Z,23.52
2023-05-06T11:31:41.652Z,23.45
2023-05-06T11:34:13.161Z,23.99
2023-05-06T11:36:50.669Z,24.04
2023-05-06T11:39:19.211Z,23.70
2023-05-06T11:41:50.632Z,24.10
2023-05-06T11:44:26.515Z,24.66
2023-05-06T11:47:04.302Z,24.96
2023-05-06T11:49:38.376Z,25.18
2023-05-06T11:52:07.656Z,25.39
2023-05-06T11:54:37.346Z,25.61
2023-05-06T11:57:08.757Z,25.59
2023-05-06T11:59:38.459Z,25.77
2023-05-06T12:02:09.013Z,25.98
2023-05-06T12:04:42.485Z,26.32
2023-05-06T12:07:12.673Z,26.81
2023-05-06T12:09:43.456Z,27.22
2023-05-06T12:12:18.083Z,27.34
2023-05-06T12:14:47.649Z,27.29
2023-05-06T12:17:18.163Z,27.30
2023-05-06T12:19:47.417Z,27.13
2023-05-06T12:22:18.393Z,26.93
2023-05-06T12:24:47.248Z,26.96
2023-05-06T12:27:30.953Z,27.25
2023-05-06T12:30:01.084Z,27.34
2023-05-06T12:32:29.574Z,27.52
2023-05-06T12:35:06.033Z,27.68
2023-05-06T12:37:34.443Z,27.93
2023-05-06T12:40:04.205Z,28.05
2023-05-06T12:42:34.588Z,27.97
2023-05-06T12:45:15.338Z,27.90
2023-05-06T12:47:53.941Z,28.00
2023-05-06T12:50:35.432Z,28.30
2023-05-06T12:53:04.047Z,28.64
2023-05-06T12:55:33.082Z,28.73
2023-05-06T12:58:04.081Z,28.54
2023-05-06T13:00:32.575Z,28.64
2023-05-06T13:03:01.987Z,29.15
2023-05-06T13:05:30.528Z,29.32
2023-05-06T13:08:00.460Z,29.71
2023-05-06T13:10:28.926Z,29.79
2023-05-06T13:12:57.893Z,29.88
2023-05-06T13:15:28.713Z,29.89
2023-05-06T13:17:57.285Z,30.20
2023-05-06T13:20:27.472Z,30.46
2023-05-06T13:22:56.305Z,30.67
2023-05-06T13:25:24.778Z,30.79
2023-05-06T13:27:55.542Z,30.86
2023-05-06T13:30:23.976Z,30.34
2023-05-06T13:32:54.611Z,30.12
2023-05-06T13:35:23.013Z,30.35
2023-05-06T13:37:52.469Z,30.40
2023-05-06T13:40:22.377Z,29.65
2023-05-06T13:42:50.740Z,29.45
2023-05-06T13:45:19.614Z,29.98
2023-05-06T13:47:48.097Z,30.31
2023-05-06T13:50:19.386Z,30.80
2023-05-06T13:52:47.822Z,30.89
2023-05-06T13:55:19.303Z,31.19
2023-05-06T13:57:47.879Z,31.08
2023-05-06T14:00:18.389Z,31.29
2023-05-06T14:02:47.070Z,31.48
2023-05-06T14:05:17.508Z,31.50
2023-05-06T14:07:47.372Z,31.09
2023-05-06T14:10:16.931Z,30.89
2023-05-06T14:12:45.440Z,31.22
2023-05-06T14:15:15.908Z,31.27
2023-05-06T14:17:45.109Z,31.03
2023-05-06T14:20:13.598Z,31.38
2023-05-06T14:22:42.886Z,31.22
2023-05-06T14:25:13.105Z,31.06
2023-05-06T14:27:42.062Z,31.32
2023-05-06T14:30:11.548Z,31.69
2023-05-06T14:32:40.011Z,31.76
2023-05-06T14:35:10.888Z,31.82
2023-05-06T14:37:39.720Z,31.68
2023-05-06T14:40:11.376Z,30.92
2023-05-06T14:42:41.268Z,30.51
2023-05-06T14:45:11.690Z,29.96
2023-05-06T14:47:41.473Z,30.29
2023-05-06T14:50:12.051Z,29.78
2023-05-06T14:52:41.878Z,29.49
2023-05-06T14:55:12.125Z,29.23
2023-05-06T14:57:42.011Z,29.67
2023-05-06T15:00:29.229Z,29.91
2023-05-06T15:02:57.703Z,29.89
2023-05-06T15:05:27.341Z,29.77
2023-05-06T15:07:56.041Z,29.43
2023-05-06T15:10:24.406Z,29.18
2023-05-06T15:12:54.754Z,29.26
2023-05-06T15:15:23.131Z,29.57
2023-05-06T15:17:53.792Z,29.74
2023-05-06T15:20:22.161Z,30.02
2023-05-06T15:22:51.609Z,30.33
2023-05-06T15:25:33.447Z,30.50
2023-05-06T15:28:08.077Z,30.59
2023-05-06T15:30:38.186Z,30.52
2023-05-06T15:33:07.282Z,30.62
2023-05-06T15:35:35.781Z,30.83
2023-05-06T15:38:06.049Z,30.57
2023-05-06T15:40:36.883Z,30.20
2023-05-06T15:43:08.446Z,30.03
2023-05-06T15:45:38.007Z,29.89
2023-05-06T15:48:08.199Z,29.84
2023-05-06T15:50:37.899Z,29.75
2023-05-06T15:53:06.577Z,29.55
2023-05-06T15:55:45.203Z,29.56
2023-05-06T15:58:18.092Z,29.62
2023-05-06T16:00:46.565Z,29.44
2023-05-06T16:03:15.530Z,29.18
2023-05-06T16:05:44.077Z,29.26
2023-05-06T16:08:13.998Z,29.45
2023-05-06T16:10:42.489Z,29.63
2023-05-06T16:13:11.828Z,29.65
2023-05-06T16:15:42.731Z,29.77
2023-05-06T16:18:11.411Z,29.76
2023-05-06T16:20:40.279Z,29.65
2023-05-06T16:23:08.699Z,29.34
2023-05-06T16:25:39.387Z,29.11
2023-05-06T16:28:08.781Z,28.87
2023-05-06T16:30:38.085Z,28.83
2023-05-06T16:33:08.338Z,28.76
2023-05-06T16:35:37.244Z,28.67
2023-05-06T16:38:06.048Z,28.51
2023-05-06T16:40:41.725Z,28.35
2023-05-06T16:43:10.934Z,28.33
2023-05-06T16:45:39.705Z,28.26
2023-05-06T16:48:09.992Z,28.31
2023-05-06T16:50:38.423Z,28.36
2023-05-06T16:53:08.124Z,28.38
2023-05-06T16:55:37.067Z,28.23
2023-05-06T16:58:05.511Z,28.24
2023-05-06T17:00:34.358Z,28.04
2023-05-06T17:03:03.841Z,27.80
2023-05-06T17:05:34.693Z,27.63
2023-05-06T17:08:03.532Z,27.61
2023-05-06T17:10:33.009Z,27.49
2023-05-06T17:13:01.974Z,27.31
2023-05-06T17:15:30.398Z,27.09
2023-05-06T17:17:59.621Z,26.94
2023-05-06T17:20:28.070Z,26.82
2023-05-06T17:22:58.669Z,26.71
2023-05-06T17:25:27.166Z,26.62
2023-05-06T17:27:56.701Z,26.54
2023-05-06T17:30:25.266Z,26.49
2023-05-06T17:32:54.803Z,26.40
2023-05-06T17:35:23.146Z,26.23
2023-05-06T17:37:56.803Z,26.15
2023-05-06T17:40:26.525Z,25.97
2023-05-06T17:42:56.085Z,25.80
2023-05-06T17:45:25.849Z,25.64
2023-05-06T17:47:54.300Z,25.47
2023-05-06T17:50:23.988Z,25.35
2023-05-06T17:52:52.922Z,25.37
2023-05-06T17:55:22.753Z,25.24
2023-05-06T17:57:53.508Z,25.03
2023-05-06T18:00:23.265Z,24.73
2023-05-06T18:02:52.127Z,24.62
2023-05-06T18:05:22.215Z,24.46
2023-05-06T18:07:50.976Z,24.39
2023-05-06T18:10:20.032Z,24.31
2023-05-06T18:12:49.356Z,24.17
2023-05-06T18:15:19.136Z,24.10
2023-05-06T18:17:47.986Z,23.98
2023-05-06T18:20:16.747Z,23.85
2023-05-06T18:22:45.139Z,23.66
2023-05-06T18:25:15.225Z,23.49
2023-05-06T18:27:43.574Z,23.34
2023-05-06T18:30:13.476Z,23.26
2023-05-06T18:32:43.205Z,23.07
2023-05-06T18:35:12.963Z,22.95
2023-05-06T18:37:41.573Z,22.85
2023-05-06T18:40:12.012Z,22.75
2023-05-06T18:42:40.428Z,22.69
2023-05-06T18:45:11.881Z,22.55
2023-05-06T18:47:40.486Z,22.45
2023-05-06T18:50:12.741Z,22.22
2023-05-06T18:52:41.315Z,22.11
2023-05-06T18:55:10.635Z,22.24
2023-05-06T18:57:39.535Z,22.36
2023-05-06T19:00:09.429Z,22.09
2023-05-06T19:02:38.414Z,21.80
2023-05-06T19:05:08.407Z,21.64
2023-05-06T19:07:39.180Z,21.53
2023-05-06T19:10:08.986Z,21.47
2023-05-06T19:12:37.425Z,21.41
2023-05-06T19:15:07.224Z,21.33
2023-05-06T19:17:35.881Z,21.24
2023-05-06T19:20:05.162Z,21.16
2023-05-06T19:22:34.419Z,21.11
2023-05-06T19:25:04.841Z,20.99
2023-05-06T19:27:33.244Z,20.96
2023-05-06T19:30:03.175Z,20.94
2023-05-06T19:32:32.849Z,20.90
2023-05-06T19:35:07.957Z,20.79
2023-05-06T19:37:37.229Z,20.70
2023-05-06T19:40:09.119Z,20.53
2023-05-06T19:42:37.899Z,20.46
2023-05-06T19:45:10.192Z,20.44
2023-05-06T19:47:39.741Z,20.39
2023-05-06T19:50:09.310Z,20.31
2023-05-06T19:52:38.386Z,20.29
2023-05-06T19:55:09.542Z,20.28
2023-05-06T19:57:39.031Z,20.25
2023-05-06T20:00:10.183Z,20.14
2023-05-06T20:02:39.534Z,20.04
2023-05-06T20:05:09.005Z,19.99
2023-05-06T20:07:38.246Z,19.88
2023-05-06T20:10:10.058Z,19.73
2023-05-06T20:12:38.490Z,19.75
2023-05-06T20:15:08.685Z,19.71
2023-05-06T20:17:37.406Z,19.68
2023-05-06T20:20:09.839Z,19.74
2023-05-06T20:22:39.440Z,19.67
2023-05-06T20:25:14.464Z,19.59
2023-05-06T20:27:44.066Z,19.52
2023-05-06T20:30:12.836Z,19.50
2023-05-06T20:32:42.453Z,19.42
2023-05-06T20:35:12.644Z,19.32
2023-05-06T20:37:41.730Z,19.23
2023-05-06T20:40:12.697Z,19.17
2023-05-06T20:42:42.020Z,19.06
2023-05-06T20:45:11.153Z,18.87
2023-05-06T20:47:40.242Z,18.87
2023-05-06T20:50:09.301Z,18.90
2023-05-06T20:52:38.122Z,18.88
2023-05-06T20:55:07.645Z,18.85
2023-05-06T20:57:43.000Z,18.79
2023-05-06T21:00:12.286Z,18.67
2023-05-06T21:02:42.189Z,18.53
2023-05-06T21:05:11.492Z,18.56
2023-05-06T21:07:40.985Z,18.54
2023-05-06T21:10:11.353Z,18.46
2023-05-06T21:12:41.588Z,18.43
2023-05-06T21:15:11.184Z,18.40
2023-05-06T21:17:39.793Z,18.45
2023-05-06T21:20:09.665Z,18.41
2023-05-06T21:22:39.599Z,18.37
2023-05-06T21:25:09.752Z,18.34
2023-05-06T21:27:38.770Z,18.31
2023-05-06T21:30:10.449Z,18.34
2023-05-06T21:32:39.576Z,18.27
2023-05-06T21:35:08.944Z,18.17
2023-05-06T21:37:37.911Z,18.13
2023-05-06T21:40:07.132Z,18.06
2023-05-06T21:42:37.059Z,18.00
2023-05-06T21:45:06.330Z,17.98
2023-05-06T21:47:36.897Z,17.96
2023-05-06T21:50:07.213Z,17.91
2023-05-06T21:52:35.671Z,17.86
2023-05-06T21:55:05.260Z,17.88
2023-05-06T21:57:33.676Z,17.82
2023-05-06T22:00:08.342Z,17.83
2023-05-06T22:02:38.120Z,17.79
2023-05-06T22:05:07.520Z,17.75
2023-05-06T22:07:36.080Z,17.68
2023-05-06T22:10:05.853Z,17.62
2023-05-06T22:12:37.241Z,17.52
2023-05-06T22:15:07.842Z,17.45
2023-05-06T22:17:36.917Z,17.48
2023-05-06T22:20:10.936Z,17.52
2023-05-06T22:22:41.101Z,17.47
2023-05-06T22:25:10.730Z,17.46
2023-05-06T22:27:39.369Z,17.45
2023-05-06T22:30:11.028Z,17.37
2023-05-06T22:32:39.837Z,17.34
2023-05-06T22:35:11.111Z,17.31
2023-05-06T22:37:39.634Z,17.27
2023-05-06T22:40:10.495Z,17.24
2023-05-06T22:42:39.251Z,17.23
2023-05-06T22:45:09.590Z,17.20
2023-05-06T22:47:38.584Z,17.14
2023-05-06T22:50:09.734Z,17.09
2023-05-06T22:52:38.065Z,17.07
2023-05-06T22:55:09.708Z,17.13
2023-05-06T22:57:38.325Z,17.15
2023-05-06T23:00:08.746Z,17.11
2023-05-06T23:02:37.281Z,17.08
2023-05-06T23:05:06.755Z,17.03
2023-05-06T23:07:37.615Z,16.95
2023-05-06T23:10:07.423Z,16.87
2023-05-06T23:12:36.468Z,16.78
2023-05-06T23:15:05.611Z,16.80
2023-05-06T23:17:34.666Z,16.80
2023-05-06T23:20:03.493Z,16.79
2023-05-06T23:22:32.729Z,16.78
2023-05-06T23:25:03.666Z,16.66
2023-05-06T23:27:32.164Z,16.64
2023-05-06T23:30:01.736Z,16.65
2023-05-06T23:32:30.099Z,16.59
2023-05-06T23:34:59.393Z,16.56
2023-05-06T23:37:27.947Z,16.54
2023-05-06T23:39:59.691Z,16.53
2023-05-06T23:42:29.792Z,16.47
2023-05-06T23:45:00.020Z,16.40
2023-05-06T23:47:29.269Z,16.30
2023-05-06T23:49:58.712Z,16.33
2023-05-06T23:52:27.959Z,16.33
2023-05-06T23:54:56.265Z,16.32
2023-05-06T23:57:25.136Z,16.28
2023-05-06T23:59:54.778Z,16.24
